createdAt,value
2017-05-26T00:00:37.673Z,1017.03
2017-05-26T00:01:18.563Z,1017.05
2017-05-26T00:01:59.450Z,1017.04
2017-05-26T00:02:40.328Z,1017.07
2017-05-26T00:03:21.205Z,1017.05
2017-05-26T00:04:02.101Z,1017.01
2017-05-26T00:04:43.043Z,1017.07
2017-05-26T00:05:23.969Z,1017.06
2017-05-26T00:06:04.832Z,1017.05
2017-05-26T00:06:45.691Z,1017.05
2017-05-26T00:07:26.536Z,1017.07
2017-05-26T00:08:07.453Z,1017.06
2017-05-26T00:08:48.348Z,1017.06
2017-05-26T00:09:29.227Z,1017.02
2017-05-26T00:10:10.132Z,1017.07
2017-05-26T00:10:51.022Z,1017.04
2017-05-26T00:11:31.893Z,1017.04
2017-05-26T00:12:12.752Z,1017.02
2017-05-26T00:12:53.631Z,1017.04
2017-05-26T00:13:34.531Z,1017.06
2017-05-26T00:14:15.414Z,1017.05
2017-05-26T00:14:56.298Z,1017.06
2017-05-26T00:15:37.238Z,1017.04
2017-05-26T00:16:18.101Z,1017.07
2017-05-26T00:16:58.975Z,1017.06
2017-05-26T00:17:39.873Z,1017.08
2017-05-26T00:18:20.764Z,1017.06
2017-05-26T00:19:01.635Z,1017.01
2017-05-26T00:19:42.507Z,1017.04
2017-05-26T00:20:23.421Z,1017.07
2017-05-26T00:21:04.313Z,1017.04
2017-05-26T00:21:45.167Z,1017.02
2017-05-26T00:22:26.060Z,1017.07
2017-05-26T00:23:06.961Z,1017.01
2017-05-26T00:23:47.843Z,1017.03
2017-05-26T00:24:28.709Z,1017.04
2017-05-26T00:25:09.590Z,1017.06
2017-05-26T00:25:50.490Z,1017.03
2017-05-26T00:26:31.386Z,1017.05
2017-05-26T00:27:12.249Z,1017.02
2017-05-26T00:27:53.170Z,1017
2017-05-26T00:28:34.058Z,1017.03
2017-05-26T00:29:14.917Z,1016.98
2017-05-26T00:29:55.840Z,1017.03
2017-05-26T00:30:36.732Z,1016.99
2017-05-26T00:31:17.595Z,1016.98
2017-05-26T00:31:58.460Z,1017
2017-05-26T00:32:39.381Z,1016.99
2017-05-26T00:33:20.280Z,1017.01
2017-05-26T00:34:01.122Z,1017.04
2017-05-26T00:34:41.996Z,1016.99
2017-05-26T00:35:22.887Z,1016.96
2017-05-26T00:36:03.793Z,1016.99
2017-05-26T00:36:44.652Z,1016.97
2017-05-26T00:37:25.520Z,1016.96
2017-05-26T00:39:24.303Z,1016.93
2017-05-26T00:40:05.191Z,1016.91
2017-05-26T00:40:46.098Z,1016.9
2017-05-26T00:41:27.009Z,1016.9
2017-05-26T00:42:07.881Z,1016.87
2017-05-26T00:42:48.775Z,1016.9
2017-05-26T00:43:29.644Z,1016.88
2017-05-26T00:44:10.541Z,1016.89
2017-05-26T00:44:51.435Z,1016.9
2017-05-26T00:45:32.318Z,1016.86
2017-05-26T00:46:13.202Z,1016.86
2017-05-26T00:46:54.096Z,1016.89
2017-05-26T00:47:34.996Z,1016.87
2017-05-26T00:48:15.862Z,1016.86
2017-05-26T00:48:56.750Z,1016.84
2017-05-26T00:49:37.645Z,1016.9
2017-05-26T00:50:18.534Z,1016.83
2017-05-26T00:50:59.428Z,1016.84
2017-05-26T00:51:40.335Z,1016.85
2017-05-26T00:52:21.217Z,1016.87
2017-05-26T00:53:02.103Z,1016.86
2017-05-26T00:53:43.013Z,1016.9
2017-05-26T00:54:23.905Z,1016.89
2017-05-26T00:55:04.801Z,1016.84
2017-05-26T00:55:45.691Z,1016.77
2017-05-26T00:56:26.564Z,1016.86
2017-05-26T00:57:07.458Z,1016.86
2017-05-26T00:57:48.346Z,1016.83
2017-05-26T00:58:29.236Z,1016.84
2017-05-26T00:59:10.107Z,1016.79
2017-05-26T00:59:50.988Z,1016.8
2017-05-26T01:00:31.881Z,1016.81
2017-05-26T01:01:12.761Z,1016.82
2017-05-26T01:01:53.644Z,1016.81
2017-05-26T01:02:34.529Z,1016.79
2017-05-26T01:03:15.424Z,1016.83
2017-05-26T01:03:56.305Z,1016.83
2017-05-26T01:04:37.176Z,1016.8
2017-05-26T01:05:18.097Z,1016.79
2017-05-26T01:05:58.989Z,1016.8
2017-05-26T01:06:39.845Z,1016.76
2017-05-26T01:07:20.731Z,1016.78
2017-05-26T01:08:01.648Z,1016.8
2017-05-26T01:08:42.521Z,1016.8
2017-05-26T01:09:23.400Z,1016.78
2017-05-26T01:10:04.307Z,1016.8
2017-05-26T01:10:45.181Z,1016.8
2017-05-26T01:12:38.772Z,1016.81
2017-05-26T01:13:19.674Z,1016.82
2017-05-26T01:14:00.561Z,1016.83
2017-05-26T01:14:41.430Z,1016.87
2017-05-26T01:15:22.312Z,1016.87
2017-05-26T01:16:03.207Z,1016.87
2017-05-26T01:16:44.095Z,1016.87
2017-05-26T01:17:24.971Z,1016.88
2017-05-26T01:18:05.842Z,1016.86
2017-05-26T01:18:46.753Z,1016.91
2017-05-26T01:19:27.639Z,1016.89
2017-05-26T01:20:08.501Z,1016.91
2017-05-26T01:20:49.382Z,1016.92
2017-05-26T01:21:30.284Z,1016.93
2017-05-26T01:22:11.182Z,1016.91
2017-05-26T01:22:52.058Z,1016.92
2017-05-26T01:23:32.956Z,1016.89
2017-05-26T01:24:13.836Z,1016.94
2017-05-26T01:24:54.718Z,1016.91
2017-05-26T01:25:35.605Z,1016.9
2017-05-26T01:26:16.512Z,1016.91
2017-05-26T01:26:57.378Z,1016.94
2017-05-26T01:27:38.256Z,1016.93
2017-05-26T01:28:19.134Z,1016.9
2017-05-26T01:29:00.028Z,1016.91
2017-05-26T01:29:40.915Z,1016.91
2017-05-26T01:30:21.800Z,1016.94
2017-05-26T01:31:02.690Z,1016.92
2017-05-26T01:31:43.580Z,1016.92
2017-05-26T01:32:24.463Z,1016.9
2017-05-26T01:33:05.338Z,1016.94
2017-05-26T01:33:46.237Z,1016.92
2017-05-26T01:34:27.122Z,1016.93
2017-05-26T01:35:07.989Z,1016.91
2017-05-26T01:35:48.873Z,1016.97
2017-05-26T01:36:29.761Z,1017
2017-05-26T01:37:10.668Z,1016.96
2017-05-26T01:37:51.535Z,1017.01
2017-05-26T01:38:32.468Z,1016.92
2017-05-26T01:39:13.329Z,1016.9
2017-05-26T01:39:54.219Z,1016.92
2017-05-26T01:40:35.151Z,1016.94
2017-05-26T01:41:16.029Z,1016.94
2017-05-26T01:41:56.942Z,1016.99
2017-05-26T01:42:37.829Z,1016.98
2017-05-26T01:43:18.705Z,1016.98
2017-05-26T01:43:59.610Z,1017.01
2017-05-26T01:44:40.513Z,1016.98
2017-05-26T01:45:21.413Z,1016.97
2017-05-26T01:46:02.300Z,1016.96
2017-05-26T01:46:43.181Z,1016.95
2017-05-26T01:47:24.065Z,1017
2017-05-26T01:48:05.091Z,1017.02
2017-05-26T01:48:45.968Z,1016.97
2017-05-26T01:49:26.894Z,1016.95
2017-05-26T01:50:07.775Z,1016.95
2017-05-26T01:50:48.654Z,1016.95
2017-05-26T01:51:29.555Z,1016.9
2017-05-26T01:52:10.449Z,1016.94
2017-05-26T01:52:51.331Z,1016.92
2017-05-26T01:53:32.225Z,1016.96
2017-05-26T01:54:13.122Z,1016.89
2017-05-26T01:54:53.998Z,1016.92
2017-05-26T01:55:34.882Z,1016.92
2017-05-26T01:56:15.783Z,1016.88
2017-05-26T01:56:56.657Z,1016.9
2017-05-26T01:57:37.541Z,1016.93
2017-05-26T01:58:18.430Z,1016.94
2017-05-26T01:58:59.318Z,1016.93
2017-05-26T01:59:40.217Z,1016.95
2017-05-26T02:00:21.115Z,1016.94
2017-05-26T02:01:02.005Z,1016.98
2017-05-26T02:01:42.881Z,1017.01
2017-05-26T02:02:23.787Z,1016.96
2017-05-26T02:03:04.641Z,1016.97
2017-05-26T02:03:45.551Z,1016.96
2017-05-26T02:04:26.432Z,1016.97
2017-05-26T02:05:07.318Z,1016.98
2017-05-26T02:05:48.203Z,1016.98
2017-05-26T02:06:29.087Z,1016.97
2017-05-26T02:07:09.977Z,1016.98
2017-05-26T02:07:50.873Z,1016.97
2017-05-26T02:08:31.763Z,1016.97
2017-05-26T02:09:12.645Z,1017.02
2017-05-26T02:09:53.537Z,1017
2017-05-26T02:10:34.434Z,1017.03
2017-05-26T02:11:15.332Z,1017.02
2017-05-26T02:11:56.234Z,1016.99
2017-05-26T02:12:37.126Z,1016.99
2017-05-26T02:13:18.012Z,1016.99
2017-05-26T02:13:58.907Z,1017.01
2017-05-26T02:14:39.779Z,1017.01
2017-05-26T02:15:20.669Z,1017.03
2017-05-26T02:16:01.550Z,1017.03
2017-05-26T02:16:42.444Z,1017.02
2017-05-26T02:17:23.323Z,1017.02
2017-05-26T02:18:04.207Z,1017.02
2017-05-26T02:18:45.099Z,1017.04
2017-05-26T02:19:25.976Z,1017.01
2017-05-26T02:20:06.850Z,1017.03
2017-05-26T02:20:47.741Z,1016.98
2017-05-26T02:21:28.630Z,1016.98
2017-05-26T02:22:09.520Z,1017.04
2017-05-26T02:22:50.406Z,1016.96
2017-05-26T02:23:31.307Z,1016.99
2017-05-26T02:24:12.203Z,1016.99
2017-05-26T02:24:53.096Z,1016.98
2017-05-26T02:25:33.968Z,1016.99
2017-05-26T02:26:14.859Z,1016.96
2017-05-26T02:26:55.746Z,1016.98
2017-05-26T02:27:36.638Z,1017
2017-05-26T02:28:17.503Z,1016.96
2017-05-26T02:28:58.398Z,1016.97
2017-05-26T02:29:39.269Z,1016.96
2017-05-26T02:30:20.177Z,1016.98
2017-05-26T02:31:01.061Z,1016.97
2017-05-26T02:31:41.945Z,1016.96
2017-05-26T02:32:22.828Z,1016.97
2017-05-26T02:33:03.711Z,1016.98
2017-05-26T02:33:44.594Z,1016.97
2017-05-26T02:34:25.484Z,1016.97
2017-05-26T02:35:06.401Z,1016.98
2017-05-26T02:35:47.289Z,1016.94
2017-05-26T02:36:28.173Z,1016.99
2017-05-26T02:37:09.060Z,1016.99
2017-05-26T02:37:49.951Z,1016.98
2017-05-26T02:38:30.836Z,1016.98
2017-05-26T02:39:11.740Z,1016.99
2017-05-26T02:39:52.631Z,1016.98
2017-05-26T02:40:33.526Z,1016.98
2017-05-26T02:41:14.429Z,1016.96
2017-05-26T02:41:55.318Z,1016.98
2017-05-26T02:42:36.197Z,1017.02
2017-05-26T02:43:17.090Z,1017
2017-05-26T02:43:57.981Z,1017
2017-05-26T02:44:38.863Z,1016.98
2017-05-26T02:45:19.760Z,1017.01
2017-05-26T02:46:00.642Z,1016.99
2017-05-26T02:46:41.512Z,1017.01
2017-05-26T02:47:22.407Z,1016.97
2017-05-26T02:48:03.299Z,1016.98
2017-05-26T02:48:44.209Z,1016.98
2017-05-26T02:49:25.063Z,1016.95
2017-05-26T02:50:05.958Z,1016.95
2017-05-26T02:50:46.849Z,1016.96
2017-05-26T02:51:27.725Z,1016.98
2017-05-26T02:52:08.614Z,1016.96
2017-05-26T02:52:49.511Z,1016.96
2017-05-26T02:53:30.399Z,1016.95
2017-05-26T02:54:11.292Z,1016.93
2017-05-26T02:54:52.188Z,1016.93
2017-05-26T02:55:33.073Z,1016.91
2017-05-26T02:56:13.955Z,1016.92
2017-05-26T02:56:54.861Z,1016.9
2017-05-26T02:57:35.750Z,1016.9
2017-05-26T02:58:16.630Z,1016.89
2017-05-26T02:58:57.506Z,1016.9
2017-05-26T02:59:38.395Z,1016.88
2017-05-26T03:00:19.282Z,1016.88
2017-05-26T03:01:00.174Z,1016.87
2017-05-26T03:01:41.035Z,1016.93
2017-05-26T03:03:34.688Z,1016.94
2017-05-26T03:04:15.538Z,1016.97
2017-05-26T03:04:56.418Z,1016.96
2017-05-26T03:05:37.315Z,1016.95
2017-05-26T03:06:18.199Z,1016.94
2017-05-26T03:06:59.076Z,1016.96
2017-05-26T03:07:39.966Z,1016.95
2017-05-26T03:08:20.858Z,1016.94
2017-05-26T03:09:01.743Z,1017
2017-05-26T03:09:42.629Z,1016.97
2017-05-26T03:10:23.521Z,1016.96
2017-05-26T03:11:04.397Z,1017.01
2017-05-26T03:11:45.284Z,1016.98
2017-05-26T03:12:26.159Z,1016.99
2017-05-26T03:13:07.057Z,1017.01
2017-05-26T03:13:47.944Z,1016.95
2017-05-26T03:14:28.834Z,1017.01
2017-05-26T03:15:09.698Z,1017.03
2017-05-26T03:15:50.599Z,1017
2017-05-26T03:16:31.482Z,1016.96
2017-05-26T03:17:12.368Z,1016.97
2017-05-26T03:17:53.256Z,1016.99
2017-05-26T03:18:34.147Z,1016.97
2017-05-26T03:19:15.027Z,1016.96
2017-05-26T03:19:55.913Z,1016.97
2017-05-26T03:20:36.820Z,1016.98
2017-05-26T03:21:17.813Z,1016.96
2017-05-26T03:21:58.696Z,1016.97
2017-05-26T03:22:39.601Z,1017.03
2017-05-26T03:23:20.495Z,1017.01
2017-05-26T03:24:01.382Z,1017.02
2017-05-26T03:24:42.277Z,1017.04
2017-05-26T03:25:23.161Z,1017.01
2017-05-26T03:26:04.048Z,1017.04
2017-05-26T03:26:44.975Z,1017.05
2017-05-26T03:27:25.847Z,1017.06
2017-05-26T03:28:06.733Z,1017.05
2017-05-26T03:28:47.627Z,1017.04
2017-05-26T03:29:28.516Z,1017.03
2017-05-26T03:30:09.418Z,1017.02
2017-05-26T03:30:50.309Z,1017.01
2017-05-26T03:31:31.199Z,1017.03
2017-05-26T03:32:12.083Z,1017.03
2017-05-26T03:32:52.977Z,1017.06
2017-05-26T03:33:33.862Z,1017.02
2017-05-26T03:34:14.739Z,1017.07
2017-05-26T03:34:55.640Z,1017.09
2017-05-26T03:35:36.526Z,1017.09
2017-05-26T03:36:17.412Z,1017.07
2017-05-26T03:36:58.294Z,1017.07
2017-05-26T03:37:39.191Z,1017.05
2017-05-26T03:38:20.054Z,1017.04
2017-05-26T03:39:00.959Z,1017.04
2017-05-26T03:39:41.843Z,1017.08
2017-05-26T03:40:22.718Z,1017.09
2017-05-26T03:41:03.587Z,1017.07
2017-05-26T03:41:44.473Z,1017.1
2017-05-26T03:42:25.372Z,1017.09
2017-05-26T03:43:06.270Z,1017.1
2017-05-26T03:43:47.153Z,1017.12
2017-05-26T03:44:28.043Z,1017.1
2017-05-26T03:45:08.922Z,1017.11
2017-05-26T03:45:49.800Z,1017.11
2017-05-26T03:46:30.696Z,1017.12
2017-05-26T03:47:11.575Z,1017.11
2017-05-26T03:47:52.472Z,1017.09
2017-05-26T03:48:33.336Z,1017.07
2017-05-26T03:49:14.216Z,1017.11
2017-05-26T03:49:55.107Z,1017.1
2017-05-26T03:50:35.998Z,1017.12
2017-05-26T03:51:16.861Z,1017.1
2017-05-26T03:51:57.750Z,1017.09
2017-05-26T03:52:38.669Z,1017.11
2017-05-26T03:53:19.543Z,1017.07
2017-05-26T03:54:00.431Z,1017.07
2017-05-26T03:54:41.332Z,1017.06
2017-05-26T03:55:22.218Z,1017.07
2017-05-26T03:56:03.112Z,1017.06
2017-05-26T03:56:44.052Z,1017.07
2017-05-26T03:57:24.885Z,1017.05
2017-05-26T03:58:05.773Z,1017.07
2017-05-26T03:58:46.670Z,1017.04
2017-05-26T03:59:27.562Z,1017.07
2017-05-26T04:00:08.450Z,1017.04
2017-05-26T04:00:49.362Z,1017.04
2017-05-26T04:01:30.253Z,1017.06
2017-05-26T04:02:11.140Z,1017.03
2017-05-26T04:02:52.033Z,1017.02
2017-05-26T04:03:32.918Z,1017.07
2017-05-26T04:04:13.819Z,1017.01
2017-05-26T04:04:54.694Z,1017.07
2017-05-26T04:05:35.587Z,1017.07
2017-05-26T04:06:16.502Z,1017.11
2017-05-26T04:06:57.375Z,1017.08
2017-05-26T04:07:38.269Z,1017.06
2017-05-26T04:08:19.153Z,1017.05
2017-05-26T04:09:00.033Z,1017.05
2017-05-26T04:09:40.918Z,1017.08
2017-05-26T04:10:21.801Z,1017.09
2017-05-26T04:11:02.693Z,1017.03
2017-05-26T04:11:43.580Z,1017.06
2017-05-26T04:12:24.465Z,1017.06
2017-05-26T04:13:05.342Z,1017.03
2017-05-26T04:13:46.221Z,1017.03
2017-05-26T04:14:27.120Z,1017
2017-05-26T04:15:08.015Z,1017.01
2017-05-26T04:15:48.906Z,1017.05
2017-05-26T04:16:29.789Z,1017
2017-05-26T04:17:10.685Z,1017.04
2017-05-26T04:17:51.569Z,1017.03
2017-05-26T04:18:32.465Z,1017.07
2017-05-26T04:19:13.363Z,1017.05
2017-05-26T04:19:54.251Z,1017.03
2017-05-26T04:20:35.143Z,1017.05
2017-05-26T04:21:16.036Z,1017.07
2017-05-26T04:21:56.925Z,1017.05
2017-05-26T04:22:37.813Z,1017.05
2017-05-26T04:23:18.717Z,1017.07
2017-05-26T04:23:59.606Z,1017.1
2017-05-26T04:24:40.470Z,1017.11
2017-05-26T04:25:21.361Z,1017.09
2017-05-26T04:26:02.262Z,1017.12
2017-05-26T04:26:43.150Z,1017.13
2017-05-26T04:27:24.045Z,1017.13
2017-05-26T04:28:04.926Z,1017.11
2017-05-26T04:28:45.810Z,1017.16
2017-05-26T04:29:26.697Z,1017.12
2017-05-26T04:30:07.595Z,1017.14
2017-05-26T04:30:48.473Z,1017.1
2017-05-26T04:31:29.343Z,1017.13
2017-05-26T04:32:10.214Z,1017.11
2017-05-26T04:32:51.104Z,1017.08
2017-05-26T04:33:31.996Z,1017.09
2017-05-26T04:34:12.871Z,1017.14
2017-05-26T04:34:53.751Z,1017.05
2017-05-26T04:35:34.657Z,1017.11
2017-05-26T04:36:15.524Z,1017.07
2017-05-26T04:36:56.415Z,1017.07
2017-05-26T04:37:37.302Z,1017.1
2017-05-26T04:38:18.188Z,1017.07
2017-05-26T04:38:59.088Z,1017.08
2017-05-26T04:39:39.974Z,1017.08
2017-05-26T04:40:21.543Z,1017.08
2017-05-26T04:41:02.438Z,1017.07
2017-05-26T04:41:43.317Z,1017.1
2017-05-26T04:42:24.208Z,1017.08
2017-05-26T04:43:05.105Z,1017.09
2017-05-26T04:43:45.998Z,1017.09
2017-05-26T04:44:26.888Z,1017.11
2017-05-26T04:45:07.771Z,1017.08
2017-05-26T04:45:48.667Z,1017.06
2017-05-26T04:46:29.551Z,1017.03
2017-05-26T04:47:10.437Z,1017.04
2017-05-26T04:47:51.334Z,1017.05
2017-05-26T04:48:32.234Z,1017.06
2017-05-26T04:49:13.115Z,1017
2017-05-26T04:49:54.046Z,1017.03
2017-05-26T04:50:34.930Z,1017
2017-05-26T04:51:15.816Z,1017
2017-05-26T04:51:56.702Z,1017.03
2017-05-26T04:52:37.596Z,1017.01
2017-05-26T04:53:18.496Z,1017.03
2017-05-26T04:53:59.394Z,1017
2017-05-26T04:54:40.280Z,1017.04
2017-05-26T04:55:21.186Z,1017.03
2017-05-26T04:56:02.071Z,1017.01
2017-05-26T04:56:42.970Z,1017.03
2017-05-26T04:57:23.859Z,1017.05
2017-05-26T04:58:05.174Z,1017.02
2017-05-26T04:58:46.075Z,1017.01
2017-05-26T04:59:26.970Z,1017.07
2017-05-26T05:00:07.850Z,1017.04
2017-05-26T05:00:48.734Z,1017.04
2017-05-26T05:01:29.620Z,1017.09
2017-05-26T05:02:10.507Z,1017.1
2017-05-26T05:02:51.445Z,1017.13
2017-05-26T05:03:32.332Z,1017.14
2017-05-26T05:04:13.210Z,1017.14
2017-05-26T05:04:54.102Z,1017.16
2017-05-26T05:05:34.980Z,1017.12
2017-05-26T05:06:15.905Z,1017.14
2017-05-26T05:06:57.786Z,1017.17
2017-05-26T05:07:38.678Z,1017.21
2017-05-26T05:08:19.567Z,1017.17
2017-05-26T05:09:00.441Z,1017.15
2017-05-26T05:09:42.204Z,1017.18
2017-05-26T05:10:23.685Z,1017.17
2017-05-26T05:11:04.573Z,1017.2
2017-05-26T05:11:45.473Z,1017.16
2017-05-26T05:12:26.357Z,1017.22
2017-05-26T05:13:07.241Z,1017.22
2017-05-26T05:13:48.182Z,1017.22
2017-05-26T05:14:29.027Z,1017.21
2017-05-26T05:15:09.916Z,1017.24
2017-05-26T05:15:50.817Z,1017.24
2017-05-26T05:16:31.712Z,1017.26
2017-05-26T05:17:12.591Z,1017.23
2017-05-26T05:17:53.481Z,1017.23
2017-05-26T05:18:34.379Z,1017.21
2017-05-26T05:19:15.260Z,1017.24
2017-05-26T05:19:56.186Z,1017.22
2017-05-26T05:20:37.081Z,1017.21
2017-05-26T05:21:17.973Z,1017.24
2017-05-26T05:21:58.868Z,1017.23
2017-05-26T05:22:39.759Z,1017.2
2017-05-26T05:23:20.646Z,1017.21
2017-05-26T05:24:01.539Z,1017.24
2017-05-26T05:24:42.421Z,1017.28
2017-05-26T05:25:23.301Z,1017.27
2017-05-26T05:26:04.206Z,1017.27
2017-05-26T05:26:45.092Z,1017.28
2017-05-26T05:27:25.986Z,1017.27
2017-05-26T05:28:06.873Z,1017.26
2017-05-26T05:28:47.758Z,1017.28
2017-05-26T05:29:28.636Z,1017.3
2017-05-26T05:30:09.502Z,1017.3
2017-05-26T05:31:47.910Z,1017.31
2017-05-26T05:32:28.800Z,1017.3
2017-05-26T05:33:09.697Z,1017.34
2017-05-26T05:33:50.598Z,1017.3
2017-05-26T05:34:31.484Z,1017.33
2017-05-26T05:35:12.376Z,1017.36
2017-05-26T05:35:53.248Z,1017.33
2017-05-26T05:36:34.120Z,1017.35
2017-05-26T05:37:15.013Z,1017.37
2017-05-26T05:37:55.909Z,1017.42
2017-05-26T05:38:36.815Z,1017.37
2017-05-26T05:39:17.706Z,1017.4
2017-05-26T05:39:58.595Z,1017.38
2017-05-26T05:40:39.487Z,1017.4
2017-05-26T05:41:20.372Z,1017.41
2017-05-26T05:42:01.277Z,1017.38
2017-05-26T05:42:42.131Z,1017.43
2017-05-26T05:43:23.006Z,1017.43
2017-05-26T05:44:03.901Z,1017.42
2017-05-26T05:44:44.798Z,1017.43
2017-05-26T05:45:25.684Z,1017.43
2017-05-26T05:46:06.582Z,1017.42
2017-05-26T05:46:47.482Z,1017.45
2017-05-26T05:47:28.360Z,1017.42
2017-05-26T05:48:09.245Z,1017.38
2017-05-26T05:48:50.146Z,1017.38
2017-05-26T05:49:31.038Z,1017.34
2017-05-26T05:50:11.936Z,1017.39
2017-05-26T05:50:52.835Z,1017.35
2017-05-26T05:51:33.712Z,1017.4
2017-05-26T05:52:14.605Z,1017.37
2017-05-26T05:52:55.500Z,1017.39
2017-05-26T05:53:36.399Z,1017.4
2017-05-26T05:54:17.274Z,1017.43
2017-05-26T05:54:58.173Z,1017.42
2017-05-26T05:55:39.059Z,1017.39
2017-05-26T05:56:19.974Z,1017.42
2017-05-26T05:57:00.873Z,1017.39
2017-05-26T05:57:41.777Z,1017.4
2017-05-26T05:58:22.672Z,1017.39
2017-05-26T05:59:03.565Z,1017.37
2017-05-26T05:59:44.454Z,1017.38
2017-05-26T06:00:25.349Z,1017.44
2017-05-26T06:01:06.239Z,1017.47
2017-05-26T06:01:47.123Z,1017.45
2017-05-26T06:02:28.025Z,1017.45
2017-05-26T06:03:08.910Z,1017.43
2017-05-26T06:03:49.823Z,1017.46
2017-05-26T06:04:30.716Z,1017.41
2017-05-26T06:05:11.594Z,1017.47
2017-05-26T06:05:52.497Z,1017.5
2017-05-26T06:06:33.391Z,1017.43
2017-05-26T06:07:14.258Z,1017.46
2017-05-26T06:07:55.163Z,1017.48
2017-05-26T06:08:36.063Z,1017.5
2017-05-26T06:09:16.938Z,1017.53
2017-05-26T06:09:57.827Z,1017.51
2017-05-26T06:10:38.737Z,1017.53
2017-05-26T06:11:19.623Z,1017.57
2017-05-26T06:12:01.090Z,1017.55
2017-05-26T06:12:42.025Z,1017.54
2017-05-26T06:14:51.991Z,1017.56
2017-05-26T06:15:32.875Z,1017.6
2017-05-26T06:16:13.762Z,1017.57
2017-05-26T06:16:54.662Z,1017.62
2017-05-26T06:17:35.555Z,1017.62
2017-05-26T06:18:16.443Z,1017.6
2017-05-26T06:18:57.328Z,1017.66
2017-05-26T06:19:38.206Z,1017.66
2017-05-26T06:20:19.099Z,1017.62
2017-05-26T06:20:59.993Z,1017.62
2017-05-26T06:21:40.861Z,1017.67
2017-05-26T06:22:21.729Z,1017.7
2017-05-26T06:23:02.629Z,1017.66
2017-05-26T06:23:43.524Z,1017.69
2017-05-26T06:24:24.404Z,1017.68
2017-05-26T06:25:05.293Z,1017.66
2017-05-26T06:25:46.186Z,1017.63
2017-05-26T06:26:27.074Z,1017.66
2017-05-26T06:27:07.961Z,1017.63
2017-05-26T06:27:48.866Z,1017.63
2017-05-26T06:28:29.744Z,1017.67
2017-05-26T06:29:10.625Z,1017.68
2017-05-26T06:29:51.536Z,1017.66
2017-05-26T06:30:32.424Z,1017.62
2017-05-26T06:31:13.308Z,1017.7
2017-05-26T06:31:54.197Z,1017.66
2017-05-26T06:32:35.087Z,1017.68
2017-05-26T06:33:15.969Z,1017.69
2017-05-26T06:33:56.882Z,1017.69
2017-05-26T06:34:37.780Z,1017.71
2017-05-26T06:35:18.652Z,1017.69
2017-05-26T06:35:59.536Z,1017.7
2017-05-26T06:36:43.322Z,1017.7
2017-05-26T06:37:24.206Z,1017.74
2017-05-26T06:38:05.106Z,1017.75
2017-05-26T06:38:46.016Z,1017.73
2017-05-26T06:39:27.473Z,1017.77
2017-05-26T06:40:08.352Z,1017.81
2017-05-26T06:40:49.261Z,1017.79
2017-05-26T06:41:30.305Z,1017.82
2017-05-26T06:42:11.203Z,1017.85
2017-05-26T06:42:52.086Z,1017.85
2017-05-26T06:43:32.982Z,1017.87
2017-05-26T06:44:13.885Z,1017.88
2017-05-26T06:44:54.750Z,1017.89
2017-05-26T06:45:35.626Z,1017.85
2017-05-26T06:46:16.526Z,1017.88
2017-05-26T06:46:57.415Z,1017.84
2017-05-26T06:47:38.298Z,1017.88
2017-05-26T06:48:19.189Z,1017.86
2017-05-26T06:49:00.088Z,1017.87
2017-05-26T06:49:40.966Z,1017.85
2017-05-26T06:50:21.844Z,1017.87
2017-05-26T06:51:02.737Z,1017.87
2017-05-26T06:51:43.630Z,1017.83
2017-05-26T06:52:24.504Z,1017.87
2017-05-26T06:53:05.427Z,1017.89
2017-05-26T06:53:46.326Z,1017.87
2017-05-26T06:54:27.219Z,1017.89
2017-05-26T06:55:08.117Z,1017.87
2017-05-26T06:55:49.009Z,1017.94
2017-05-26T06:56:29.918Z,1017.89
2017-05-26T06:57:10.828Z,1017.9
2017-05-26T06:57:51.722Z,1017.95
2017-05-26T06:58:32.611Z,1017.95
2017-05-26T06:59:13.489Z,1017.94
2017-05-26T06:59:54.378Z,1017.93
2017-05-26T07:00:36.076Z,1017.94
2017-05-26T07:01:16.964Z,1017.92
2017-05-26T07:01:57.849Z,1017.94
2017-05-26T07:02:38.729Z,1017.94
2017-05-26T07:03:19.623Z,1017.94
2017-05-26T07:04:00.513Z,1017.99
2017-05-26T07:04:41.388Z,1017.95
2017-05-26T07:05:22.267Z,1018
2017-05-26T07:06:03.175Z,1017.99
2017-05-26T07:06:44.050Z,1018.01
2017-05-26T07:07:24.929Z,1017.99
2017-05-26T07:08:05.824Z,1018
2017-05-26T07:08:46.738Z,1018.01
2017-05-26T07:09:27.592Z,1017.97
2017-05-26T07:10:08.496Z,1018.02
2017-05-26T07:10:49.396Z,1018.01
2017-05-26T07:11:30.271Z,1017.97
2017-05-26T07:12:11.169Z,1018.05
2017-05-26T07:12:52.061Z,1018.01
2017-05-26T07:13:32.941Z,1018.05
2017-05-26T07:14:13.832Z,1018.05
2017-05-26T07:14:54.727Z,1018.07
2017-05-26T07:15:35.624Z,1018.04
2017-05-26T07:16:16.542Z,1018.1
2017-05-26T07:16:57.431Z,1018.04
2017-05-26T07:17:38.310Z,1018.06
2017-05-26T07:18:19.221Z,1018.08
2017-05-26T07:19:00.111Z,1018.08
2017-05-26T07:19:41.009Z,1018.05
2017-05-26T07:20:21.904Z,1018.05
2017-05-26T07:21:02.852Z,1018.06
2017-05-26T07:21:43.698Z,1018.05
2017-05-26T07:22:24.599Z,1018.06
2017-05-26T07:23:05.470Z,1018.04
2017-05-26T07:23:46.374Z,1018.04
2017-05-26T07:24:27.895Z,1018.03
2017-05-26T07:25:09.476Z,1018
2017-05-26T07:25:51.237Z,1017.99
2017-05-26T07:26:32.125Z,1018.06
2017-05-26T07:27:13.015Z,1018.01
2017-05-26T07:27:54.009Z,1018.03
2017-05-26T07:28:34.882Z,1018.01
2017-05-26T07:29:15.762Z,1018.01
2017-05-26T07:29:57.321Z,1018.01
2017-05-26T07:30:38.175Z,1018
2017-05-26T07:31:19.063Z,1017.98
2017-05-26T07:32:00.743Z,1017.92
2017-05-26T07:32:41.834Z,1017.96
2017-05-26T07:33:22.725Z,1017.95
2017-05-26T07:34:03.620Z,1017.96
2017-05-26T07:34:44.509Z,1017.98
2017-05-26T07:35:25.401Z,1018.01
2017-05-26T07:36:06.284Z,1017.98
2017-05-26T07:36:47.201Z,1018.03
2017-05-26T07:37:28.096Z,1018.03
2017-05-26T07:38:08.980Z,1018.05
2017-05-26T07:38:49.883Z,1018
2017-05-26T07:39:30.767Z,1018.02
2017-05-26T07:40:11.658Z,1018.01
2017-05-26T07:40:52.557Z,1018.04
2017-05-26T07:41:33.450Z,1017.99
2017-05-26T07:42:14.348Z,1018.02
2017-05-26T07:42:55.256Z,1018.04
2017-05-26T07:43:36.143Z,1018.02
2017-05-26T07:44:17.064Z,1018.04
2017-05-26T07:44:57.961Z,1018.01
2017-05-26T07:45:38.862Z,1018.05
2017-05-26T07:46:19.741Z,1018.06
2017-05-26T07:47:00.635Z,1018.03
2017-05-26T07:47:41.545Z,1018.05
2017-05-26T07:48:22.431Z,1018.03
2017-05-26T07:49:03.310Z,1018.06
2017-05-26T07:49:44.218Z,1018.01
2017-05-26T07:50:25.105Z,1018.01
2017-05-26T07:51:05.999Z,1018
2017-05-26T07:51:46.896Z,1018.04
2017-05-26T07:52:27.778Z,1018.01
2017-05-26T07:53:08.665Z,1018.05
2017-05-26T07:53:49.611Z,1018.04
2017-05-26T07:54:30.541Z,1018.04
2017-05-26T07:55:11.421Z,1018.08
2017-05-26T07:55:52.312Z,1018.13
2017-05-26T07:56:33.211Z,1018.14
2017-05-26T07:57:14.114Z,1018.16
2017-05-26T07:57:55.015Z,1018.15
2017-05-26T07:58:35.903Z,1018.2
2017-05-26T07:59:16.790Z,1018.2
2017-05-26T07:59:57.695Z,1018.18
2017-05-26T08:00:38.585Z,1018.17
2017-05-26T08:01:19.467Z,1018.16
2017-05-26T08:02:01.872Z,1018.26
2017-05-26T08:02:42.779Z,1018.18
2017-05-26T08:03:23.690Z,1018.16
2017-05-26T08:04:04.598Z,1018.2
2017-05-26T08:04:45.471Z,1018.24
2017-05-26T08:05:26.349Z,1018.17
2017-05-26T08:06:07.257Z,1018.22
2017-05-26T08:06:48.139Z,1018.18
2017-05-26T08:07:29.025Z,1018.22
2017-05-26T08:08:09.931Z,1018.18
2017-05-26T08:08:50.814Z,1018.15
2017-05-26T08:09:31.708Z,1018.12
2017-05-26T08:10:12.607Z,1018.19
2017-05-26T08:10:53.495Z,1018.21
2017-05-26T08:11:34.377Z,1018.16
2017-05-26T08:12:15.284Z,1018.18
2017-05-26T08:12:56.171Z,1018.21
2017-05-26T08:13:37.057Z,1018.19
2017-05-26T08:14:17.976Z,1018.2
2017-05-26T08:14:58.851Z,1018.19
2017-05-26T08:15:39.728Z,1018.19
2017-05-26T08:16:20.638Z,1018.22
2017-05-26T08:17:01.519Z,1018.2
2017-05-26T08:17:42.403Z,1018.17
2017-05-26T08:18:23.295Z,1018.2
2017-05-26T08:19:04.186Z,1018.19
2017-05-26T08:19:45.059Z,1018.19
2017-05-26T08:20:25.942Z,1018.19
2017-05-26T08:21:06.847Z,1018.18
2017-05-26T08:21:47.728Z,1018.18
2017-05-26T08:22:28.618Z,1018.17
2017-05-26T08:23:09.511Z,1018.18
2017-05-26T08:23:50.400Z,1018.19